Springdale, Canada
Current Conditions -  °F | °C
As of 3:00 AM on Saturday 20 Dec 2014 (Local Time) from CYDF Reporting Station
Light Snow Light Snow  
Wind Chill: 18°   Ceiling: 3700
Heat Index: 27°   Visibility: 15mi
Dew Point: 23°   Wind: 8mph
Humidity: 86%   Direction: 20°NNE
Pressure: 30.05"   Gusts: NA
Location:  49.48°N, 56.1°W
Report Text: CYDF 200600Z 02007KT 15SM -SN OVC037 M03/M05 A3005 RMK SC8 PRESRR SLP176
Loading
Personal Weather Stations






























Interactive Weather Map New forecast layout! Learn more

10-Day Weather Forecast

Advertisements
Track Severe Weather on mobile